Terminal Aerodrome Forecast
Issued by NWS

Current Version | Previous Version | Text Only | Print | Product List | Glossary On
Versions: 1 2 3 4 5 6 7 8 9 10 11 12 13
000
FTUS45 KREV 311100
TAFMMH
TAF
KMMH 311120Z 3112/0112 VRB04KT P6SM SCT100
     FM311700 12007KT P6SM SCT070 BKN120
     FM312100 20008KT P6SM VCTS SCT070CB BKN100
     FM010000 26008KT P6SM SCT100
      AMD NOT SKED TIL 311400=

USA.gov is the U.S. government's official web portal to all federal, state and local government web resources and services.